Time;durP1;ratioP1;P1;durP2;ratioP2;P2;SDS_P1;SDS_P2;PMS_P1;PMS_P2;Temp;Humidity;BMP_temperature;BMP_pressure;BME280_temperature;BME280_humidity;BME280_pressure;Samples;Min_cycle;Max_cycle;Signal;HPM_P1;HPM_P2
2023/03/04 00:02:23;;;;;;;42.53;26.50;;;3.50;99.90;;;;;;5056998;28;21131;-74
2023/03/04 00:04:50;;;;;;;35.53;24.53;;;3.50;99.90;;;;;;5054700;28;20819;-72
2023/03/04 00:07:18;;;;;;;42.53;25.73;;;3.50;99.90;;;;;;5050551;28;20550;-72
2023/03/04 00:09:46;;;;;;;39.67;24.03;;;3.50;99.90;;;;;;5055118;28;20859;-73
2023/03/04 00:12:13;;;;;;;34.67;24.67;;;3.40;99.90;;;;;;5055906;28;20459;-71
2023/03/04 00:14:40;;;;;;;38.10;27.50;;;3.40;99.90;;;;;;5058487;28;20490;-71
2023/03/04 00:17:07;;;;;;;42.37;26.63;;;3.40;99.90;;;;;;5045704;28;21037;-73
2023/03/04 00:19:36;;;;;;;33.67;24.13;;;3.50;99.90;;;;;;5057724;28;20557;-73
2023/03/04 00:22:04;;;;;;;32.27;23.00;;;3.60;99.90;;;;;;5057488;28;20496;-72
2023/03/04 00:24:31;;;;;;;34.20;25.07;;;3.70;99.90;;;;;;5054366;28;20461;-71
2023/03/04 00:26:58;;;;;;;31.20;22.33;;;3.70;99.90;;;;;;5051851;28;20468;-70
2023/03/04 00:29:25;;;;;;;34.37;23.50;;;3.70;99.90;;;;;;5061826;28;20490;-73
2023/03/04 00:31:52;;;;;;;32.10;22.67;;;3.70;99.90;;;;;;5051885;28;20460;-73
2023/03/04 00:34:20;;;;;;;27.63;23.20;;;3.70;99.90;;;;;;5048072;28;20458;-70
2023/03/04 00:36:48;;;;;;;28.70;22.30;;;3.80;99.90;;;;;;5056650;28;20473;-71
2023/03/04 00:39:15;;;;;;;33.90;24.50;;;3.80;99.90;;;;;;5061181;28;20873;-74
2023/03/04 00:41:42;;;;;;;29.63;24.37;;;3.90;99.90;;;;;;5057098;28;20497;-72
2023/03/04 00:44:10;;;;;;;28.47;22.13;;;3.90;99.90;;;;;;5054664;28;20476;-72
2023/03/04 00:46:36;;;;;;;30.87;22.57;;;4.00;99.90;;;;;;5056053;28;20477;-74
2023/03/04 00:49:03;;;;;;;33.37;24.03;;;4.00;99.90;;;;;;5061235;28;20870;-70
2023/03/04 00:51:30;;;;;;;30.93;23.67;;;4.00;99.90;;;;;;5052546;28;20471;-72
2023/03/04 00:53:58;;;;;;;34.23;22.53;;;4.00;99.90;;;;;;5059240;28;20516;-75
2023/03/04 00:56:25;;;;;;;31.67;19.37;;;4.10;99.90;;;;;;5053734;28;20455;-73
2023/03/04 00:58:53;;;;;;;28.23;20.80;;;4.00;99.90;;;;;;5059283;28;20468;-72
2023/03/04 01:01:20;;;;;;;24.53;19.27;;;4.00;99.90;;;;;;5061170;28;21040;-72
2023/03/04 01:03:47;;;;;;;25.07;18.83;;;4.00;99.90;;;;;;5060038;28;20466;-71
2023/03/04 01:06:14;;;;;;;23.00;18.67;;;4.00;99.90;;;;;;5057141;28;20471;-70
2023/03/04 01:08:41;;;;;;;28.23;18.67;;;3.90;99.90;;;;;;5060791;28;21020;-71
2023/03/04 01:11:10;;;;;;;21.43;18.87;;;3.90;99.90;;;;;;5059662;28;20478;-70
2023/03/04 01:13:38;;;;;;;19.70;17.60;;;4.00;99.90;;;;;;5058703;28;20488;-71
2023/03/04 01:16:06;;;;;;;19.63;17.63;;;4.10;99.90;;;;;;5059945;28;20585;-71
2023/03/04 01:18:34;;;;;;;21.37;17.00;;;4.10;99.90;;;;;;5056232;28;20469;-71
2023/03/04 01:21:00;;;;;;;21.80;17.00;;;4.00;99.90;;;;;;5052547;28;20475;-72
2023/03/04 01:23:27;;;;;;;23.57;17.33;;;4.00;99.90;;;;;;5055270;28;20965;-70
2023/03/04 01:25:54;;;;;;;22.07;17.90;;;4.00;99.90;;;;;;5053229;28;20472;-73
2023/03/04 01:28:23;;;;;;;20.80;17.30;;;4.00;99.90;;;;;;5058412;28;20491;-72
2023/03/04 01:30:50;;;;;;;26.60;17.20;;;4.10;99.90;;;;;;5060198;28;20459;-70
2023/03/04 01:33:18;;;;;;;25.73;17.27;;;4.10;99.90;;;;;;5053476;28;20452;-71
2023/03/04 01:35:44;;;;;;;19.73;17.00;;;3.90;99.90;;;;;;5057821;28;20597;-70
2023/03/04 01:38:12;;;;;;;25.13;16.70;;;3.90;99.90;;;;;;5057891;28;20961;-71
2023/03/04 01:40:39;;;;;;;23.70;16.97;;;4.00;99.90;;;;;;5057612;28;20469;-72
2023/03/04 01:43:06;;;;;;;23.80;16.67;;;4.00;99.90;;;;;;5057645;28;20755;-70
2023/03/04 01:45:36;;;;;;;23.03;17.03;;;4.10;99.90;;;;;;5057586;28;20486;-73
2023/03/04 01:48:03;;;;;;;19.33;16.37;;;4.00;99.90;;;;;;5059697;28;20479;-71
2023/03/04 01:50:33;;;;;;;23.33;17.90;;;4.00;99.90;;;;;;5058036;28;20689;-72
2023/03/04 01:53:01;;;;;;;20.80;16.43;;;4.00;99.90;;;;;;5060368;28;20467;-71
2023/03/04 01:55:29;;;;;;;26.67;17.67;;;4.00;99.90;;;;;;5049399;28;20467;-72
2023/03/04 01:57:56;;;;;;;16.90;15.30;;;4.00;99.90;;;;;;5063654;28;20471;-70
2023/03/04 02:00:27;;;;;;;18.00;16.30;;;4.00;99.90;;;;;;5058493;28;20495;-72
2023/03/04 02:02:59;;;;;;;16.70;15.20;;;3.90;99.90;;;;;;5058086;28;20820;-71
2023/03/04 02:05:27;;;;;;;17.27;15.57;;;4.00;99.90;;;;;;5054617;28;20476;-71
2023/03/04 02:07:55;;;;;;;32.53;17.00;;;4.10;99.90;;;;;;5049937;28;20526;-73
2023/03/04 02:10:22;;;;;;;18.53;16.67;;;4.00;99.90;;;;;;5046981;28;20987;-71
2023/03/04 02:12:49;;;;;;;19.80;16.53;;;4.10;99.90;;;;;;5067270;28;20466;-72
2023/03/04 02:15:17;;;;;;;16.83;15.13;;;4.10;99.90;;;;;;5056050;28;20463;-71
2023/03/04 02:17:44;;;;;;;21.87;16.30;;;3.90;99.90;;;;;;5052929;28;20455;-73
2023/03/04 02:20:23;;;;;;;18.93;15.40;;;3.90;99.90;;;;;;5057591;28;20465;-72
2023/03/04 02:22:57;;;;;;;20.83;15.10;;;4.00;99.90;;;;;;5048658;28;20783;-73
2023/03/04 02:25:30;;;;;;;22.27;15.83;;;4.10;99.90;;;;;;5059634;28;20464;-71
2023/03/04 02:27:58;;;;;;;18.07;14.00;;;4.00;99.90;;;;;;5060926;28;20841;-72
2023/03/04 02:30:25;;;;;;;17.37;15.63;;;4.00;99.90;;;;;;5057809;28;20561;-71
2023/03/04 02:32:52;;;;;;;21.37;14.40;;;4.00;99.90;;;;;;5053205;28;20476;-73
2023/03/04 02:35:21;;;;;;;25.83;15.10;;;4.00;99.90;;;;;;5056243;28;20470;-71
2023/03/04 02:37:48;;;;;;;20.60;14.67;;;4.00;99.90;;;;;;5056587;28;20468;-72
2023/03/04 02:40:20;;;;;;;29.70;15.20;;;4.00;99.90;;;;;;5057029;28;21108;-70
2023/03/04 02:42:48;;;;;;;26.90;15.67;;;4.00;99.90;;;;;;5055267;28;20486;-71
2023/03/04 02:45:38;;;;;;;30.13;15.30;;;4.10;99.90;;;;;;5059539;28;20470;-72
2023/03/04 02:48:05;;;;;;;16.83;15.10;;;4.20;99.90;;;;;;5056915;28;21074;-73
2023/03/04 02:50:35;;;;;;;17.30;14.60;;;4.20;99.90;;;;;;5055607;28;20464;-72
2023/03/04 02:53:03;;;;;;;16.20;14.60;;;4.20;99.90;;;;;;5050656;28;21150;-72
2023/03/04 02:55:31;;;;;;;24.40;15.10;;;4.20;99.90;;;;;;5054719;28;20459;-70
2023/03/04 02:57:58;;;;;;;21.67;15.13;;;4.20;99.90;;;;;;5056099;28;20682;-71
2023/03/04 03:00:25;;;;;;;21.33;15.23;;;4.10;99.90;;;;;;5056289;28;20829;-70
2023/03/04 03:02:55;;;;;;;19.80;15.03;;;4.00;99.90;;;;;;5048955;28;21036;-72
2023/03/04 03:05:23;;;;;;;20.70;15.67;;;4.00;99.90;;;;;;5053317;28;20467;-73
2023/03/04 03:07:50;;;;;;;23.97;14.70;;;4.10;99.90;;;;;;5049872;28;20562;-71
2023/03/04 03:10:17;;;;;;;16.70;14.20;;;4.10;99.90;;;;;;5058260;28;20973;-73
2023/03/04 03:12:44;;;;;;;16.33;13.93;;;4.10;99.90;;;;;;5065393;28;20459;-72
2023/03/04 03:15:11;;;;;;;22.73;14.90;;;4.10;99.90;;;;;;5058102;28;20455;-73
2023/03/04 03:17:40;;;;;;;14.43;13.30;;;4.10;99.90;;;;;;5057152;28;20554;-73
2023/03/04 03:20:11;;;;;;;27.03;14.10;;;4.10;99.90;;;;;;5055457;28;21050;-73
2023/03/04 03:22:38;;;;;;;15.17;13.67;;;4.00;99.90;;;;;;5060132;28;20493;-72
2023/03/04 03:25:05;;;;;;;39.47;14.53;;;4.00;99.90;;;;;;5054239;28;20821;-72
2023/03/04 03:27:32;;;;;;;18.13;13.97;;;4.10;99.90;;;;;;5060272;28;20467;-72
2023/03/04 03:29:59;;;;;;;15.83;13.90;;;4.00;99.90;;;;;;5056530;28;20486;-71
2023/03/04 03:32:27;;;;;;;25.23;14.80;;;4.10;99.90;;;;;;5058548;28;20959;-71
2023/03/04 03:34:53;;;;;;;14.70;13.27;;;4.10;99.90;;;;;;5054391;28;20915;-71
2023/03/04 03:37:22;;;;;;;17.20;14.10;;;4.20;99.90;;;;;;5058791;28;21567;-72
2023/03/04 03:39:48;;;;;;;19.50;14.40;;;4.20;99.90;;;;;;5051377;28;20595;-72
2023/03/04 03:42:15;;;;;;;22.17;14.70;;;4.10;99.90;;;;;;5052013;28;20490;-72
2023/03/04 03:44:42;;;;;;;17.10;13.90;;;4.10;99.90;;;;;;5057593;28;20460;-72
2023/03/04 03:47:09;;;;;;;24.10;14.40;;;4.10;99.90;;;;;;5056952;28;20464;-74
2023/03/04 03:49:37;;;;;;;25.23;14.33;;;4.20;99.90;;;;;;5055446;28;20487;-72
2023/03/04 03:52:03;;;;;;;25.50;15.50;;;4.30;99.90;;;;;;5055838;28;21037;-74
2023/03/04 03:54:33;;;;;;;19.07;14.90;;;4.30;99.90;;;;;;5052344;28;20951;-74
2023/03/04 03:56:59;;;;;;;30.87;16.00;;;4.40;99.90;;;;;;5055897;28;20514;-72
2023/03/04 03:59:26;;;;;;;17.70;15.00;;;4.50;99.90;;;;;;5056692;28;20933;-71
2023/03/04 04:01:53;;;;;;;14.47;13.57;;;4.60;99.90;;;;;;5055377;28;20551;-73
2023/03/04 04:04:20;;;;;;;22.07;14.80;;;4.50;99.90;;;;;;5055373;28;20464;-70
2023/03/04 04:06:47;;;;;;;16.43;14.67;;;4.50;99.90;;;;;;5048847;28;20463;-71
2023/03/04 04:09:14;;;;;;;18.30;15.30;;;4.50;99.90;;;;;;5058068;28;20532;-70
2023/03/04 04:11:42;;;;;;;17.70;15.80;;;4.60;99.90;;;;;;5054923;28;20476;-73
2023/03/04 04:14:11;;;;;;;19.70;15.87;;;4.60;99.90;;;;;;5055481;28;20468;-72
2023/03/04 04:16:38;;;;;;;16.87;14.80;;;4.70;99.90;;;;;;5057800;28;20480;-71
2023/03/04 04:19:05;;;;;;;15.60;14.23;;;4.60;99.90;;;;;;5060944;28;20493;-73
2023/03/04 04:21:33;;;;;;;18.10;14.80;;;4.60;99.90;;;;;;5062328;28;20465;-72
2023/03/04 04:23:59;;;;;;;19.00;14.90;;;4.50;99.90;;;;;;5056871;28;20461;-73
2023/03/04 04:26:26;;;;;;;22.70;15.40;;;4.60;99.90;;;;;;5057299;28;20886;-71
2023/03/04 04:28:54;;;;;;;20.20;16.13;;;4.60;99.90;;;;;;5062490;28;20498;-72
2023/03/04 04:31:21;;;;;;;18.00;14.80;;;4.60;99.90;;;;;;5057077;28;20839;-70
2023/03/04 04:33:48;;;;;;;20.20;15.07;;;4.60;99.90;;;;;;5060769;28;20490;-71
2023/03/04 04:36:16;;;;;;;20.13;15.80;;;4.60;99.90;;;;;;5055866;28;20467;-71
2023/03/04 04:38:43;;;;;;;16.47;14.73;;;4.60;99.90;;;;;;5056299;28;20985;-72
2023/03/04 04:41:18;;;;;;;19.57;14.80;;;4.70;99.90;;;;;;5054509;28;20495;-71
2023/03/04 04:43:46;;;;;;;21.90;14.70;;;4.60;99.90;;;;;;5050987;28;21610;-72
2023/03/04 04:46:15;;;;;;;21.37;15.13;;;4.70;99.90;;;;;;5074471;28;20461;-71
2023/03/04 04:48:42;;;;;;;19.63;14.20;;;4.70;99.90;;;;;;5054952;28;20529;-73
2023/03/04 04:51:09;;;;;;;21.50;15.33;;;4.70;99.90;;;;;;5054645;28;20479;-72
2023/03/04 04:53:36;;;;;;;18.27;15.43;;;4.70;99.90;;;;;;5050562;28;20853;-73
2023/03/04 04:56:09;;;;;;;16.20;14.90;;;4.70;99.90;;;;;;5054889;28;20462;-71
2023/03/04 04:58:37;;;;;;;19.20;16.07;;;4.80;99.90;;;;;;5064749;28;20555;-72
2023/03/04 05:01:05;;;;;;;16.27;14.80;;;4.80;99.90;;;;;;5058934;28;20542;-73
2023/03/04 05:03:34;;;;;;;17.23;15.00;;;4.80;99.90;;;;;;5054199;28;20473;-72
2023/03/04 05:06:02;;;;;;;18.17;15.00;;;4.70;99.90;;;;;;5059135;28;20492;-71
2023/03/04 05:08:28;;;;;;;18.07;15.60;;;4.80;99.90;;;;;;5057222;28;21078;-71
2023/03/04 05:10:55;;;;;;;16.40;14.80;;;4.70;99.90;;;;;;5057545;28;20871;-72
2023/03/04 05:13:23;;;;;;;16.23;14.83;;;4.80;99.90;;;;;;5053686;28;20464;-72
2023/03/04 05:15:52;;;;;;;20.50;14.83;;;4.80;99.90;;;;;;5054425;28;20485;-70
2023/03/04 05:18:19;;;;;;;16.37;15.03;;;4.80;99.90;;;;;;5052396;28;20542;-71
2023/03/04 05:20:50;;;;;;;14.97;13.80;;;4.80;99.90;;;;;;5059444;28;20955;-72
2023/03/04 05:23:17;;;;;;;17.57;15.80;;;4.70;99.90;;;;;;5063221;28;20554;-73
2023/03/04 05:25:44;;;;;;;15.67;14.07;;;4.70;99.90;;;;;;5060893;28;20473;-71
2023/03/04 05:28:11;;;;;;;19.27;14.47;;;4.70;99.90;;;;;;5060215;28;20460;-71
2023/03/04 05:30:39;;;;;;;16.53;14.43;;;4.70;99.90;;;;;;5057003;28;20490;-72
2023/03/04 05:33:07;;;;;;;16.27;14.87;;;4.70;99.90;;;;;;5060929;28;20547;-71
2023/03/04 05:35:34;;;;;;;16.43;14.83;;;4.70;99.90;;;;;;5059159;28;20555;-71
2023/03/04 05:38:03;;;;;;;17.47;15.60;;;4.70;99.90;;;;;;5062973;28;20456;-71
2023/03/04 05:40:30;;;;;;;15.67;14.13;;;4.70;99.90;;;;;;5051142;28;20464;-70
2023/03/04 05:42:56;;;;;;;14.77;13.37;;;4.80;99.90;;;;;;5057313;28;20876;-70
2023/03/04 05:45:26;;;;;;;20.30;14.67;;;4.80;99.90;;;;;;5058940;28;20987;-73
2023/03/04 05:47:53;;;;;;;15.37;13.93;;;4.80;99.90;;;;;;5058581;28;20960;-71
2023/03/04 05:50:21;;;;;;;17.93;16.23;;;4.80;99.90;;;;;;5059678;28;20503;-71
2023/03/04 05:52:48;;;;;;;18.53;15.43;;;4.80;99.90;;;;;;5055687;28;20842;-73
2023/03/04 05:55:17;;;;;;;16.17;14.57;;;4.90;99.90;;;;;;5054234;28;20541;-72
2023/03/04 05:57:44;;;;;;;20.10;15.53;;;4.90;99.90;;;;;;5055533;28;20466;-72
2023/03/04 06:00:13;;;;;;;19.60;14.60;;;4.80;99.90;;;;;;5061594;28;20465;-72
2023/03/04 06:02:41;;;;;;;16.10;14.60;;;4.80;99.90;;;;;;5063414;28;20832;-71
2023/03/04 06:05:09;;;;;;;16.37;14.70;;;4.80;99.90;;;;;;5058445;28;20463;-71
2023/03/04 06:07:36;;;;;;;16.00;14.40;;;4.80;99.90;;;;;;5059363;28;20472;-71
2023/03/04 06:10:04;;;;;;;15.60;14.30;;;4.70;99.90;;;;;;5054337;28;20484;-73
2023/03/04 06:12:32;;;;;;;15.60;14.27;;;4.80;99.90;;;;;;5056601;28;20464;-71
2023/03/04 06:14:59;;;;;;;14.83;13.53;;;4.90;99.90;;;;;;5060388;28;20455;-70
2023/03/04 06:17:26;;;;;;;18.23;13.93;;;4.90;99.90;;;;;;5062287;28;20509;-72
2023/03/04 06:19:53;;;;;;;21.40;14.23;;;4.80;99.90;;;;;;5057219;28;20474;-73
2023/03/04 06:22:20;;;;;;;18.63;13.53;;;4.90;99.90;;;;;;5054690;28;20466;-70
2023/03/04 06:24:47;;;;;;;15.43;13.87;;;4.90;99.90;;;;;;5058491;28;20468;-72
2023/03/04 06:27:15;;;;;;;17.40;13.90;;;4.90;99.90;;;;;;5054898;28;20467;-71
2023/03/04 06:29:43;;;;;;;16.10;13.43;;;4.80;99.90;;;;;;5056641;28;21117;-72
2023/03/04 06:32:10;;;;;;;17.57;14.97;;;4.80;99.90;;;;;;5062934;28;20509;-73
2023/03/04 06:34:36;;;;;;;15.30;13.13;;;4.80;99.90;;;;;;5055508;28;20882;-72
2023/03/04 06:37:03;;;;;;;14.77;13.47;;;4.80;99.90;;;;;;5052383;28;20459;-73
2023/03/04 06:39:30;;;;;;;14.30;12.90;;;4.80;99.90;;;;;;5058853;28;20642;-71
2023/03/04 06:41:57;;;;;;;20.90;13.50;;;4.80;99.90;;;;;;5054907;28;20492;-72
2023/03/04 06:44:24;;;;;;;24.93;13.63;;;4.90;99.90;;;;;;5056916;28;20475;-72
2023/03/04 06:46:52;;;;;;;18.57;14.03;;;4.80;99.90;;;;;;5055234;28;20461;-72
2023/03/04 06:49:19;;;;;;;14.77;13.60;;;4.80;99.90;;;;;;5058042;28;20463;-72
2023/03/04 06:51:46;;;;;;;17.00;13.90;;;4.80;99.90;;;;;;5058873;28;20998;-71
2023/03/04 06:54:12;;;;;;;16.87;13.80;;;4.90;99.90;;;;;;5054193;28;20463;-72
2023/03/04 06:56:40;;;;;;;14.90;13.50;;;4.80;99.90;;;;;;5053066;28;20447;-72
2023/03/04 06:59:07;;;;;;;14.63;13.30;;;4.90;99.90;;;;;;5056354;28;20460;-70
2023/03/04 07:01:35;;;;;;;15.90;14.20;;;4.80;99.90;;;;;;5060113;28;20490;-72
2023/03/04 07:04:03;;;;;;;15.53;14.50;;;4.80;99.90;;;;;;5062456;28;20582;-73
2023/03/04 07:06:30;;;;;;;18.50;13.70;;;4.90;99.90;;;;;;5048296;28;20455;-71
2023/03/04 07:08:59;;;;;;;14.50;13.63;;;4.90;99.90;;;;;;5052111;28;20456;-71
2023/03/04 07:11:27;;;;;;;14.43;13.30;;;4.90;99.90;;;;;;5051244;28;20494;-70
2023/03/04 07:13:55;;;;;;;15.60;13.23;;;4.90;99.90;;;;;;5059053;28;20957;-73
2023/03/04 07:16:23;;;;;;;16.53;15.00;;;4.90;99.90;;;;;;5054712;28;20480;-71
2023/03/04 07:18:50;;;;;;;16.20;13.40;;;4.90;99.90;;;;;;5059686;28;20463;-71
2023/03/04 07:21:20;;;;;;;20.20;13.30;;;5.00;99.90;;;;;;5056431;28;20957;-75
2023/03/04 07:23:47;;;;;;;16.30;13.17;;;5.10;99.90;;;;;;5055349;28;20561;-73
2023/03/04 07:26:14;;;;;;;14.10;13.20;;;5.10;99.90;;;;;;5053442;28;20467;-71
2023/03/04 07:28:42;;;;;;;18.60;13.47;;;5.10;99.90;;;;;;5061100;28;20453;-70
2023/03/04 07:31:11;;;;;;;14.20;13.20;;;5.10;99.90;;;;;;5055859;28;20589;-71
2023/03/04 07:33:38;;;;;;;18.03;13.87;;;5.10;99.90;;;;;;5054170;28;20470;-73
2023/03/04 07:36:05;;;;;;;15.73;13.50;;;5.20;99.90;;;;;;5055729;28;20469;-72
2023/03/04 07:38:34;;;;;;;15.33;13.80;;;5.20;99.90;;;;;;5062206;28;20457;-71
2023/03/04 07:41:01;;;;;;;15.67;13.90;;;5.20;99.90;;;;;;5049108;28;20502;-72
2023/03/04 07:43:27;;;;;;;15.10;13.73;;;5.30;99.90;;;;;;5052824;28;20462;-72
2023/03/04 07:46:00;;;;;;;16.80;15.03;;;5.30;99.90;;;;;;5055497;28;20975;-72
2023/03/04 07:48:27;;;;;;;14.83;13.60;;;5.40;99.90;;;;;;5058191;28;20575;-72
2023/03/04 07:51:10;;;;;;;14.30;12.73;;;5.40;99.90;;;;;;5059150;28;20490;-71
2023/03/04 07:53:40;;;;;;;18.90;13.20;;;5.30;99.90;;;;;;5058958;28;20474;-71
2023/03/04 07:56:10;;;;;;;14.67;13.27;;;5.20;99.90;;;;;;5055611;28;20468;-73
2023/03/04 07:58:38;;;;;;;16.60;13.27;;;5.10;99.90;;;;;;5046866;28;20460;-73
2023/03/04 08:01:10;;;;;;;15.27;14.03;;;5.10;99.90;;;;;;5061532;28;20461;-73
2023/03/04 08:03:37;;;;;;;18.77;13.63;;;5.20;99.90;;;;;;5055597;28;20455;-72
2023/03/04 08:06:06;;;;;;;19.00;13.37;;;5.40;99.90;;;;;;5058807;28;21278;-72
2023/03/04 08:08:33;;;;;;;15.27;13.43;;;5.40;99.90;;;;;;5062123;28;20457;-73
2023/03/04 08:11:04;;;;;;;12.60;11.80;;;5.50;99.90;;;;;;5055957;28;20475;-72
2023/03/04 08:13:32;;;;;;;15.13;13.77;;;5.60;99.90;;;;;;5059039;28;20625;-71
2023/03/04 08:15:59;;;;;;;14.53;13.30;;;5.50;99.90;;;;;;5062684;28;21082;-72
2023/03/04 08:18:26;;;;;;;14.60;12.57;;;5.50;99.90;;;;;;5060774;28;20737;-73
2023/03/04 08:20:53;;;;;;;13.50;12.30;;;5.50;99.90;;;;;;5058491;28;20978;-72
2023/03/04 08:23:20;;;;;;;13.73;12.53;;;5.60;99.90;;;;;;5051698;28;20958;-72
2023/03/04 08:25:48;;;;;;;24.17;13.00;;;5.50;99.90;;;;;;5062945;28;20497;-73
2023/03/04 08:28:17;;;;;;;12.50;11.70;;;5.40;99.90;;;;;;5063012;28;20529;-72
2023/03/04 08:30:44;;;;;;;13.07;12.07;;;5.40;99.90;;;;;;5059998;28;20497;-73
2023/03/04 08:33:11;;;;;;;14.20;13.10;;;5.30;99.90;;;;;;5057105;28;20452;-70
2023/03/04 08:35:38;;;;;;;14.37;13.37;;;5.20;99.90;;;;;;5052817;28;20471;-71
2023/03/04 08:38:06;;;;;;;14.23;12.60;;;5.30;99.90;;;;;;5058883;28;20463;-70
2023/03/04 08:40:33;;;;;;;17.30;15.60;;;5.40;99.90;;;;;;5052862;28;20513;-70
2023/03/04 08:43:01;;;;;;;16.43;14.23;;;5.40;99.90;;;;;;5057174;28;20885;-72
2023/03/04 08:45:29;;;;;;;13.93;12.53;;;5.40;99.90;;;;;;5048495;28;20459;-71
2023/03/04 08:47:56;;;;;;;12.80;11.60;;;5.40;99.90;;;;;;5061439;28;20506;-70
2023/03/04 08:50:26;;;;;;;14.13;11.60;;;5.40;99.90;;;;;;5052043;28;20501;-71
2023/03/04 08:52:53;;;;;;;17.43;11.80;;;5.50;99.90;;;;;;5055689;28;20469;-71
2023/03/04 08:55:20;;;;;;;14.23;11.30;;;5.80;99.90;;;;;;5050491;28;20805;-71
2023/03/04 08:57:46;;;;;;;14.33;12.27;;;5.80;99.90;;;;;;5056698;28;20461;-71
2023/03/04 09:00:15;;;;;;;12.57;11.37;;;5.90;99.90;;;;;;5058879;28;20463;-72
2023/03/04 09:02:43;;;;;;;12.13;10.67;;;6.00;99.90;;;;;;5052254;28;20459;-72
2023/03/04 09:05:10;;;;;;;28.73;13.23;;;6.00;99.90;;;;;;5057570;28;20814;-70
2023/03/04 09:07:37;;;;;;;16.33;13.40;;;6.10;99.90;;;;;;5055579;28;20455;-69
2023/03/04 09:10:06;;;;;;;15.70;14.10;;;6.20;99.90;;;;;;5054069;28;20462;-73
2023/03/04 09:12:32;;;;;;;17.03;12.50;;;6.20;99.90;;;;;;5050061;28;20890;-73
2023/03/04 09:14:59;;;;;;;15.93;12.37;;;6.30;99.90;;;;;;5050157;28;20478;-72
2023/03/04 09:17:26;;;;;;;19.73;13.23;;;6.20;99.90;;;;;;5051878;28;20485;-71
2023/03/04 09:19:54;;;;;;;14.77;13.53;;;6.20;99.90;;;;;;5046711;28;20714;-72
2023/03/04 09:22:21;;;;;;;14.67;13.27;;;6.20;99.90;;;;;;5059601;28;20487;-70
2023/03/04 09:24:48;;;;;;;15.07;13.90;;;6.20;99.90;;;;;;5049500;28;20507;-73
2023/03/04 09:27:14;;;;;;;15.37;13.80;;;6.10;99.90;;;;;;5051217;28;20475;-73
2023/03/04 09:29:43;;;;;;;14.27;13.37;;;6.10;99.90;;;;;;5054272;28;20472;-72
2023/03/04 09:32:10;;;;;;;14.53;13.20;;;6.30;99.90;;;;;;5051898;28;20489;-73
2023/03/04 09:34:38;;;;;;;17.10;13.60;;;6.70;99.90;;;;;;5052309;28;20464;-72
2023/03/04 09:37:06;;;;;;;14.90;13.70;;;6.90;99.90;;;;;;5051661;28;20463;-71
2023/03/04 09:39:33;;;;;;;14.40;13.30;;;6.60;99.90;;;;;;5057930;28;20455;-71
2023/03/04 09:42:02;;;;;;;14.63;13.63;;;6.50;99.90;;;;;;5057412;28;20483;-74
2023/03/04 09:44:32;;;;;;;15.20;14.23;;;6.80;99.90;;;;;;5051063;28;20467;-73
2023/03/04 09:47:02;;;;;;;15.10;13.80;;;7.10;99.90;;;;;;5051746;28;20469;-74
2023/03/04 09:49:30;;;;;;;13.47;12.60;;;7.10;99.90;;;;;;5059656;28;20703;-73
2023/03/04 09:52:04;;;;;;;14.87;13.70;;;7.40;99.90;;;;;;5053385;28;20981;-74
2023/03/04 09:54:58;;;;;;;14.10;13.20;;;7.40;99.90;;;;;;5046019;28;20477;-74
2023/03/04 09:57:30;;;;;;;14.73;13.70;;;7.30;99.90;;;;;;5052663;28;20449;-72
2023/03/04 10:00:11;;;;;;;14.93;13.93;;;7.40;99.90;;;;;;5056051;28;20463;-73
2023/03/04 10:02:45;;;;;;;16.20;14.90;;;7.70;99.90;;;;;;5049805;28;20455;-74
2023/03/04 10:05:18;;;;;;;14.80;14.20;;;7.60;99.90;;;;;;5061951;28;20457;-73
2023/03/04 10:07:49;;;;;;;16.63;14.93;;;7.80;99.90;;;;;;5057765;28;20452;-74
2023/03/04 10:10:23;;;;;;;16.47;15.53;;;8.00;99.90;;;;;;5053331;28;20508;-74
2023/03/04 10:12:53;;;;;;;18.73;14.90;;;8.30;99.90;;;;;;5057180;28;20463;-73
2023/03/04 10:15:27;;;;;;;15.07;13.80;;;8.30;99.90;;;;;;5049222;28;20460;-72
2023/03/04 10:18:02;;;;;;;15.60;14.63;;;8.40;99.90;;;;;;5048447;28;20470;-73
2023/03/04 10:20:38;;;;;;;14.93;14.07;;;8.20;99.90;;;;;;5054272;28;20512;-73
2023/03/04 10:23:21;;;;;;;16.10;14.03;;;8.20;99.90;;;;;;5059878;28;20512;-72
2023/03/04 10:25:53;;;;;;;15.13;14.00;;;8.70;99.90;;;;;;5043207;28;20455;-74
2023/03/04 10:28:24;;;;;;;16.43;14.90;;;9.00;99.90;;;;;;5060319;28;20463;-74
2023/03/04 10:30:57;;;;;;;15.10;14.10;;;9.10;99.90;;;;;;5062837;28;20522;-72
2023/03/04 10:33:27;;;;;;;14.90;14.00;;;8.90;99.90;;;;;;5057533;28;20532;-74
2023/03/04 10:36:02;;;;;;;15.00;13.73;;;8.50;99.90;;;;;;5054501;28;20460;-73
2023/03/04 10:38:32;;;;;;;15.33;14.30;;;8.00;99.90;;;;;;5058159;28;21477;-73
2023/03/04 10:41:01;;;;;;;14.93;14.00;;;7.90;99.90;;;;;;5057852;28;20491;-73
2023/03/04 10:43:38;;;;;;;15.10;14.23;;;7.80;99.90;;;;;;5124457;27;20510;-72
2023/03/04 10:46:05;;;;;;;15.77;14.07;;;7.90;99.90;;;;;;5113062;28;20453;-72
2023/03/04 10:48:32;;;;;;;15.10;13.73;;;8.40;99.90;;;;;;5113487;28;20482;-71
2023/03/04 10:51:16;;;;;;;16.27;15.00;;;8.80;99.90;;;;;;5109901;28;20862;-71
2023/03/04 10:53:43;;;;;;;15.40;14.60;;;9.10;99.90;;;;;;5110640;28;20464;-72
2023/03/04 10:56:32;;;;;;;14.67;13.60;;;9.00;99.90;;;;;;5106733;28;20453;-72
2023/03/04 10:59:32;;;;;;;14.60;13.50;;;8.40;99.90;;;;;;5115464;28;20460;-73
2023/03/04 11:01:59;;;;;;;15.00;13.90;;;8.10;99.90;;;;;;5109985;28;21014;-72
2023/03/04 11:04:28;;;;;;;15.23;14.20;;;7.70;99.90;;;;;;5111877;28;20490;-73
2023/03/04 11:06:55;;;;;;;14.00;13.00;;;7.70;99.90;;;;;;5108528;28;20454;-72
2023/03/04 11:09:24;;;;;;;13.37;12.67;;;7.80;99.90;;;;;;5110489;27;20465;-73
2023/03/04 11:11:52;;;;;;;14.60;13.60;;;7.80;99.90;;;;;;5110850;28;20759;-73
2023/03/04 11:14:24;;;;;;;14.67;13.87;;;7.90;99.90;;;;;;5105671;28;20833;-72
2023/03/04 11:16:56;;;;;;;13.90;13.30;;;8.00;99.90;;;;;;5110125;28;20472;-73
2023/03/04 11:19:28;;;;;;;14.07;13.37;;;8.20;99.90;;;;;;5107996;28;20460;-73
2023/03/04 11:21:56;;;;;;;14.13;13.47;;;8.40;99.90;;;;;;5105313;28;20735;-72
2023/03/04 11:24:28;;;;;;;14.50;13.60;;;8.90;99.90;;;;;;5097477;28;20467;-72
2023/03/04 11:26:59;;;;;;;14.63;13.83;;;8.60;99.90;;;;;;5104598;28;20453;-73
2023/03/04 11:29:34;;;;;;;15.43;14.07;;;8.80;99.90;;;;;;5107074;28;20483;-73
2023/03/04 11:32:05;;;;;;;14.87;13.90;;;9.30;99.90;;;;;;5100765;28;20997;-73
2023/03/04 11:34:38;;;;;;;15.10;13.83;;;9.30;99.90;;;;;;5107206;28;20467;-73
2023/03/04 11:37:12;;;;;;;14.43;13.47;;;8.90;99.90;;;;;;5105529;28;20457;-72
2023/03/04 11:39:42;;;;;;;14.50;13.57;;;8.90;99.90;;;;;;5101336;28;20461;-73
2023/03/04 11:42:23;;;;;;;14.93;14.03;;;9.00;99.90;;;;;;5104034;28;20509;-72
2023/03/04 11:44:52;;;;;;;14.10;13.40;;;9.30;99.90;;;;;;5100071;28;20550;-72
2023/03/04 11:47:31;;;;;;;14.83;13.73;;;8.90;99.90;;;;;;5102470;28;20460;-72
2023/03/04 11:50:29;;;;;;;14.13;13.33;;;9.00;99.90;;;;;;5100612;28;20477;-73
2023/03/04 11:53:16;;;;;;;14.53;13.80;;;9.00;99.90;;;;;;5077485;28;20497;-73
2023/03/04 11:55:47;;;;;;;15.00;14.00;;;8.80;99.90;;;;;;5094183;28;20461;-72
2023/03/04 11:58:50;;;;;;;15.10;14.20;;;9.00;99.90;;;;;;5091223;28;20458;-73
2023/03/04 12:01:26;;;;;;;15.60;14.33;;;9.10;99.90;;;;;;5087947;28;20469;-71
2023/03/04 12:04:06;;;;;;;14.03;13.00;;;9.00;99.90;;;;;;5085939;28;20481;-74
2023/03/04 12:06:44;;;;;;;14.73;13.93;;;9.10;99.90;;;;;;5090135;28;20465;-73
2023/03/04 12:09:36;;;;;;;14.70;13.90;;;9.00;99.90;;;;;;5087205;28;20502;-71
2023/03/04 12:12:22;;;;;;;13.73;12.90;;;9.00;99.90;;;;;;5091848;28;20525;-71
2023/03/04 12:14:56;;;;;;;13.60;12.80;;;8.80;99.90;;;;;;5092500;28;20453;-71
2023/03/04 12:17:56;;;;;;;14.33;13.33;;;8.40;99.90;;;;;;5088715;28;20537;-71
2023/03/04 12:20:49;;;;;;;13.00;12.30;;;8.30;99.90;;;;;;5094588;28;20458;-71
2023/03/04 12:23:29;;;;;;;13.53;12.83;;;8.00;99.90;;;;;;5093611;28;20481;-74
2023/03/04 12:26:03;;;;;;;14.20;13.30;;;7.90;99.90;;;;;;5089095;28;20469;-71
2023/03/04 12:28:52;;;;;;;13.40;12.80;;;7.90;99.90;;;;;;5087707;28;20473;-71
2023/03/04 12:31:39;;;;;;;14.33;13.20;;;7.80;99.90;;;;;;5090194;28;20888;-74
2023/03/04 12:34:31;;;;;;;14.83;13.77;;;7.60;99.90;;;;;;5088783;28;20466;-72
2023/03/04 12:37:11;;;;;;;14.27;13.33;;;7.90;99.90;;;;;;5089265;28;20493;-71
2023/03/04 12:39:41;;;;;;;13.33;12.67;;;8.30;99.90;;;;;;5087119;28;20469;-72
2023/03/04 12:42:19;;;;;;;14.20;13.00;;;8.50;99.90;;;;;;5088868;28;20517;-72
2023/03/04 12:44:53;;;;;;;14.33;13.43;;;8.80;99.90;;;;;;5079947;28;20466;-72
2023/03/04 12:47:31;;;;;;;13.90;13.00;;;8.80;99.90;;;;;;5086398;28;20481;-72
2023/03/04 12:50:18;;;;;;;13.23;12.53;;;8.80;99.90;;;;;;5086368;28;20775;-72